Time;durP1;ratioP1;P1;durP2;ratioP2;P2;SDS_P1;SDS_P2;PMS_P1;PMS_P2;Temp;Humidity;BMP_temperature;BMP_pressure;BME280_temperature;BME280_humidity;BME280_pressure;Samples;Min_cycle;Max_cycle;Signal;HPM_P1;HPM_P2
2022/11/18 00:00:49;;;;;;;7.10;3.78;;;9.10;91.10;;;;;;5049746;28;20036;-75
2022/11/18 00:03:15;;;;;;;6.03;3.40;;;9.10;91.10;;;;;;5058957;28;20379;-76
2022/11/18 00:05:41;;;;;;;7.20;2.88;;;9.10;91.10;;;;;;5050645;28;20044;-74
2022/11/18 00:08:07;;;;;;;7.93;4.07;;;9.10;91.30;;;;;;5050948;28;20378;-75
2022/11/18 00:10:35;;;;;;;8.48;4.05;;;9.10;91.40;;;;;;5049368;28;20033;-74
2022/11/18 00:15:45;;;;;;;11.05;4.07;;;9.10;91.50;;;;;;5052293;28;20044;-74
2022/11/18 00:18:11;;;;;;;7.32;3.78;;;9.10;91.60;;;;;;5052242;28;20032;-75
2022/11/18 00:20:38;;;;;;;8.63;4.05;;;9.00;91.50;;;;;;5051465;28;20393;-75
2022/11/18 00:23:03;;;;;;;7.55;4.18;;;9.00;91.60;;;;;;5055712;28;20040;-74
2022/11/18 00:25:29;;;;;;;8.32;4.30;;;9.00;91.70;;;;;;5056362;28;20403;-74
2022/11/18 00:27:54;;;;;;;8.00;4.30;;;8.90;91.70;;;;;;5059886;28;20050;-74
2022/11/18 00:30:21;;;;;;;8.50;4.55;;;8.90;91.80;;;;;;5050585;28;20052;-76
2022/11/18 00:32:46;;;;;;;8.93;4.80;;;8.90;91.80;;;;;;5047383;28;20213;-77
2022/11/18 00:35:12;;;;;;;9.15;4.68;;;8.90;91.80;;;;;;5055221;28;20047;-75
2022/11/18 00:37:38;;;;;;;9.45;4.57;;;8.90;91.90;;;;;;5056523;28;20060;-74
2022/11/18 00:40:04;;;;;;;11.82;4.50;;;8.90;92.00;;;;;;5052243;28;20040;-75
2022/11/18 00:45:14;;;;;;;8.60;3.90;;;8.80;92.20;;;;;;5053496;28;20499;-76
2022/11/18 00:47:39;;;;;;;8.23;4.35;;;8.80;92.30;;;;;;5049315;28;20555;-74
2022/11/18 00:50:05;;;;;;;8.02;4.35;;;8.80;92.30;;;;;;5047106;28;20465;-74
2022/11/18 00:52:31;;;;;;;10.32;4.50;;;8.80;92.30;;;;;;5051191;28;20043;-73
2022/11/18 00:54:56;;;;;;;8.23;4.13;;;8.80;92.30;;;;;;5052081;28;20131;-75
2022/11/18 00:57:22;;;;;;;12.23;4.78;;;8.80;92.40;;;;;;5048197;28;20616;-75
2022/11/18 00:59:48;;;;;;;9.10;4.82;;;8.70;92.40;;;;;;5050273;28;20117;-75
2022/11/18 01:02:13;;;;;;;9.32;5.05;;;8.80;92.40;;;;;;5049007;28;20033;-74
2022/11/18 01:04:39;;;;;;;9.70;5.15;;;8.70;92.50;;;;;;5047697;28;20532;-75
2022/11/18 01:07:05;;;;;;;7.72;4.35;;;8.60;92.50;;;;;;5052221;28;20476;-77
2022/11/18 01:09:30;;;;;;;10.20;4.45;;;8.60;92.60;;;;;;5052255;28;20040;-75
2022/11/18 01:14:40;;;;;;;11.57;5.38;;;8.60;92.60;;;;;;5050842;28;20040;-78
2022/11/18 01:17:06;;;;;;;11.27;5.05;;;8.50;92.70;;;;;;5053270;28;20056;-75
2022/11/18 01:19:31;;;;;;;8.77;4.80;;;8.50;92.80;;;;;;5057522;28;20029;-74
2022/11/18 01:22:01;;;;;;;10.25;4.95;;;8.50;92.80;;;;;;5058444;28;20033;-76
2022/11/18 01:24:28;;;;;;;8.40;4.95;;;8.50;92.90;;;;;;5057156;28;20047;-75
2022/11/18 01:26:54;;;;;;;9.27;4.57;;;8.50;92.90;;;;;;5054905;28;20090;-74
2022/11/18 01:29:19;;;;;;;9.25;4.90;;;8.50;92.90;;;;;;5057796;28;20474;-74
2022/11/18 01:31:45;;;;;;;8.07;4.75;;;8.50;92.90;;;;;;5055963;28;20048;-74
2022/11/18 01:34:10;;;;;;;9.35;4.63;;;8.50;92.90;;;;;;5050972;28;20032;-75
2022/11/18 01:36:36;;;;;;;9.65;4.65;;;8.40;92.90;;;;;;5057055;28;20044;-74
2022/11/18 01:39:02;;;;;;;11.55;4.70;;;8.40;93.00;;;;;;5060388;28;20447;-74
2022/11/18 01:41:28;;;;;;;11.25;5.20;;;8.40;93.00;;;;;;5050719;28;20498;-74
2022/11/18 01:43:56;;;;;;;9.80;4.65;;;8.40;93.10;;;;;;5054227;28;20045;-73
2022/11/18 01:46:24;;;;;;;10.75;5.00;;;8.40;93.10;;;;;;5052400;28;20059;-76
2022/11/18 01:48:55;;;;;;;12.00;5.68;;;8.40;93.10;;;;;;5050993;28;20098;-75
2022/11/18 01:51:27;;;;;;;10.18;5.47;;;8.30;93.20;;;;;;5057521;28;20447;-74
2022/11/18 01:54:01;;;;;;;10.20;5.50;;;8.30;93.10;;;;;;5051377;28;20033;-75
2022/11/18 01:56:45;;;;;;;12.88;5.35;;;8.30;93.20;;;;;;5055633;28;20098;-74
2022/11/18 01:59:16;;;;;;;11.50;4.78;;;8.30;93.20;;;;;;5054230;28;20055;-74
2022/11/18 02:01:42;;;;;;;11.50;5.65;;;8.20;93.20;;;;;;5048823;28;20049;-77
2022/11/18 02:04:08;;;;;;;10.52;5.57;;;8.20;93.30;;;;;;5052526;28;20444;-75
2022/11/18 02:06:35;;;;;;;11.07;5.97;;;8.30;93.40;;;;;;5065093;28;20455;-74
2022/11/18 02:09:02;;;;;;;13.45;5.65;;;8.20;93.40;;;;;;5053588;28;20150;-74
2022/11/18 02:14:13;;;;;;;10.93;5.05;;;8.20;93.40;;;;;;5049194;28;20039;-73
2022/11/18 02:17:06;;;;;;;8.85;4.85;;;8.10;93.40;;;;;;5047695;28;20112;-77
2022/11/18 02:19:35;;;;;;;9.13;5.18;;;8.10;93.40;;;;;;5048848;28;20037;-74
2022/11/18 02:22:19;;;;;;;11.23;5.13;;;8.10;93.40;;;;;;5047663;28;20056;-74
2022/11/18 02:24:58;;;;;;;9.03;5.13;;;8.10;93.50;;;;;;5045281;28;20125;-74
2022/11/18 02:27:54;;;;;;;9.38;4.63;;;8.10;93.50;;;;;;5056189;28;20037;-74
2022/11/18 02:30:20;;;;;;;11.85;5.25;;;8.10;93.60;;;;;;5046396;28;20055;-76
2022/11/18 02:33:08;;;;;;;9.13;4.88;;;8.10;93.60;;;;;;5045330;28;20044;-74
2022/11/18 02:35:48;;;;;;;9.52;5.32;;;8.10;93.70;;;;;;5051544;28;20079;-75
2022/11/18 02:38:31;;;;;;;9.73;5.57;;;8.20;93.60;;;;;;5048774;28;20109;-74
2022/11/18 02:41:06;;;;;;;10.50;4.93;;;8.10;93.60;;;;;;5041707;28;20041;-75
2022/11/18 02:43:42;;;;;;;13.27;5.85;;;8.10;93.50;;;;;;5042118;28;20128;-74
2022/11/18 02:46:13;;;;;;;11.38;5.35;;;8.10;93.50;;;;;;5047177;28;20112;-74
2022/11/18 02:48:50;;;;;;;9.85;5.60;;;8.10;93.60;;;;;;5046224;28;20049;-74
2022/11/18 02:51:22;;;;;;;8.70;5.28;;;8.10;93.50;;;;;;5054690;28;20037;-75
2022/11/18 02:53:49;;;;;;;12.07;5.15;;;8.10;93.50;;;;;;5051572;28;20128;-75
2022/11/18 02:56:17;;;;;;;11.00;5.90;;;8.00;93.50;;;;;;5048339;28;20550;-74
2022/11/18 02:58:43;;;;;;;9.48;5.65;;;8.00;93.50;;;;;;5051824;28;20033;-74
2022/11/18 03:01:22;;;;;;;11.88;5.47;;;8.00;93.50;;;;;;5047113;28;20033;-75
2022/11/18 03:03:49;;;;;;;8.70;4.82;;;8.00;93.60;;;;;;5069749;28;20126;-77
2022/11/18 03:06:32;;;;;;;10.55;5.22;;;8.00;93.50;;;;;;5043288;28;20036;-76
2022/11/18 03:09:17;;;;;;;10.60;5.60;;;8.00;93.60;;;;;;5043886;28;20402;-73
2022/11/18 03:11:58;;;;;;;10.35;5.28;;;8.00;93.60;;;;;;5049278;28;20047;-73
2022/11/18 03:14:57;;;;;;;12.73;5.47;;;7.90;93.70;;;;;;5046180;28;20037;-74
2022/11/18 03:17:47;;;;;;;10.63;5.22;;;7.90;93.60;;;;;;5044167;28;20465;-74
2022/11/18 03:20:35;;;;;;;9.63;5.15;;;7.90;93.60;;;;;;5049580;28;20555;-77
2022/11/18 03:23:13;;;;;;;8.88;4.22;;;7.90;93.60;;;;;;5041143;28;20052;-74
2022/11/18 03:25:57;;;;;;;11.90;4.82;;;7.80;93.60;;;;;;5047444;28;20041;-74
2022/11/18 03:28:39;;;;;;;11.38;4.90;;;7.80;93.70;;;;;;5054208;28;20376;-74
2022/11/18 03:31:41;;;;;;;9.93;4.57;;;7.80;93.60;;;;;;5050713;28;20344;-74
2022/11/18 03:34:41;;;;;;;13.55;4.95;;;7.80;93.70;;;;;;5024372;28;20036;-74
2022/11/18 03:37:10;;;;;;;11.65;5.15;;;7.80;93.60;;;;;;5056607;28;20506;-75
2022/11/18 03:39:40;;;;;;;14.70;5.78;;;7.80;93.60;;;;;;5062233;28;20477;-75
2022/11/18 03:42:12;;;;;;;12.27;5.15;;;7.80;93.70;;;;;;5056362;28;20052;-76
2022/11/18 03:44:41;;;;;;;8.57;5.10;;;7.80;93.70;;;;;;5049465;28;20044;-74
2022/11/18 03:47:15;;;;;;;8.93;3.85;;;7.80;93.70;;;;;;5048879;28;20037;-75
2022/11/18 03:49:49;;;;;;;9.18;4.53;;;7.80;93.70;;;;;;5052975;28;20037;-75
2022/11/18 03:52:24;;;;;;;10.50;4.68;;;7.80;93.60;;;;;;5047758;28;20051;-75
2022/11/18 03:54:51;;;;;;;;;;;7.70;93.60;;;;;;5049850;28;20033;-75
2022/11/18 03:58:04;;;;;;;10.23;4.05;;;7.70;93.50;;;;;;5047907;28;19920;-75
2022/11/18 04:00:35;;;;;;;10.18;3.58;;;7.70;93.60;;;;;;5008736;28;20439;-75
2022/11/18 04:03:01;;;;;;;9.60;4.63;;;7.70;93.60;;;;;;5052876;28;20436;-75
2022/11/18 04:05:30;;;;;;;13.80;4.53;;;7.70;93.70;;;;;;5054823;28;20033;-75
2022/11/18 04:07:57;;;;;;;8.88;4.13;;;7.70;93.60;;;;;;5054153;28;20362;-74
2022/11/18 04:10:47;;;;;;;8.63;4.13;;;7.70;93.60;;;;;;5054103;28;20507;-74
2022/11/18 04:13:39;;;;;;;12.43;4.70;;;7.70;93.60;;;;;;5049188;28;20073;-75
2022/11/18 04:16:08;;;;;;;9.50;4.13;;;7.70;93.60;;;;;;5049068;28;20115;-75
2022/11/18 04:18:34;;;;;;;9.43;4.18;;;7.60;93.60;;;;;;5050912;28;20021;-75
2022/11/18 04:20:59;;;;;;;11.32;4.03;;;7.70;93.70;;;;;;5058094;28;20029;-75
2022/11/18 04:23:25;;;;;;;12.20;4.70;;;7.70;93.70;;;;;;5050524;28;20079;-75
2022/11/18 04:25:51;;;;;;;7.93;4.13;;;7.70;93.70;;;;;;5050833;28;20550;-75
2022/11/18 04:28:16;;;;;;;11.00;4.97;;;7.60;93.60;;;;;;5052713;28;20041;-75
2022/11/18 04:30:42;;;;;;;10.88;4.70;;;7.70;93.70;;;;;;5052463;28;20730;-74
2022/11/18 04:33:08;;;;;;;11.07;4.80;;;7.70;93.70;;;;;;5049570;28;20049;-74
2022/11/18 04:35:33;;;;;;;10.65;5.28;;;7.60;93.60;;;;;;5049183;28;20045;-74
2022/11/18 04:37:59;;;;;;;11.05;4.80;;;7.70;93.70;;;;;;5054514;28;20064;-75
2022/11/18 04:40:24;;;;;;;10.75;4.85;;;7.70;93.60;;;;;;5056242;28;20094;-74
2022/11/18 04:42:50;;;;;;;10.65;4.78;;;7.70;93.60;;;;;;5054337;28;20491;-75
2022/11/18 04:45:16;;;;;;;9.68;4.93;;;7.70;93.60;;;;;;5049782;28;20115;-74
2022/11/18 04:47:41;;;;;;;11.13;5.07;;;7.70;93.50;;;;;;5048204;28;20089;-75
2022/11/18 04:50:07;;;;;;;10.88;4.40;;;7.70;93.50;;;;;;5048542;28;20029;-76
2022/11/18 04:52:33;;;;;;;11.73;4.70;;;7.70;93.50;;;;;;5048351;28;20481;-74
2022/11/18 04:54:59;;;;;;;12.05;5.13;;;7.80;93.50;;;;;;5055049;28;20036;-74
2022/11/18 04:57:24;;;;;;;8.98;4.30;;;7.80;93.40;;;;;;5050862;28;20040;-74
2022/11/18 04:59:50;;;;;;;9.77;4.40;;;7.90;93.30;;;;;;5051976;28;20500;-74
2022/11/18 05:02:16;;;;;;;9.63;4.45;;;7.90;93.20;;;;;;5046838;28;20457;-75
2022/11/18 05:04:41;;;;;;;10.30;4.55;;;7.80;93.20;;;;;;5055488;28;20082;-75
2022/11/18 05:07:07;;;;;;;13.02;4.63;;;7.80;93.10;;;;;;5048896;28;20126;-75
2022/11/18 05:09:33;;;;;;;9.38;4.18;;;7.90;93.10;;;;;;5061453;28;20028;-76
2022/11/18 05:14:44;;;;;;;11.52;4.55;;;7.90;92.90;;;;;;5047922;28;20046;-74
2022/11/18 05:17:09;;;;;;;8.77;4.25;;;7.90;92.80;;;;;;5052845;28;20032;-75
2022/11/18 05:19:39;;;;;;;11.75;4.13;;;7.90;92.70;;;;;;5052847;28;20060;-74
2022/11/18 05:22:05;;;;;;;10.70;4.35;;;8.00;92.60;;;;;;5068146;28;20381;-75
2022/11/18 05:24:31;;;;;;;8.63;3.70;;;8.00;92.60;;;;;;5043488;28;20033;-75
2022/11/18 05:26:56;;;;;;;10.75;3.92;;;8.00;92.60;;;;;;5042930;28;20099;-75
2022/11/18 05:29:23;;;;;;;11.75;3.95;;;8.10;92.50;;;;;;5045610;28;20072;-75
2022/11/18 05:31:49;;;;;;;11.05;4.03;;;8.10;92.40;;;;;;5043995;28;20055;-74
2022/11/18 05:34:15;;;;;;;10.20;3.78;;;8.00;92.40;;;;;;5048298;28;20043;-74
2022/11/18 05:36:41;;;;;;;10.82;4.00;;;8.10;92.50;;;;;;5042862;28;20041;-75
2022/11/18 05:39:07;;;;;;;7.97;3.80;;;8.10;92.40;;;;;;5044708;28;20053;-75
2022/11/18 05:44:17;;;;;;;10.05;4.30;;;8.10;92.40;;;;;;5045147;28;20040;-74
2022/11/18 05:46:42;;;;;;;12.23;4.45;;;8.10;92.40;;;;;;5046372;28;20040;-74
2022/11/18 05:49:08;;;;;;;14.55;4.18;;;8.10;92.40;;;;;;5044126;28;20638;-75
2022/11/18 05:51:34;;;;;;;12.43;3.67;;;8.20;92.30;;;;;;5041435;28;20556;-76
2022/11/18 05:54:03;;;;;;;9.10;3.67;;;8.20;92.30;;;;;;5068170;28;20043;-74
2022/11/18 05:56:32;;;;;;;11.85;3.88;;;8.20;92.20;;;;;;5059222;28;20063;-74
2022/11/18 05:58:58;;;;;;;12.98;4.25;;;8.20;92.20;;;;;;5050543;28;20166;-74
2022/11/18 06:01:29;;;;;;;12.43;3.97;;;8.20;92.20;;;;;;5049817;28;20123;-75
2022/11/18 06:03:55;;;;;;;12.23;3.70;;;8.20;92.20;;;;;;5054220;28;20033;-74
2022/11/18 06:06:22;;;;;;;8.65;3.90;;;8.20;92.10;;;;;;5053944;28;20045;-75
2022/11/18 06:09:01;;;;;;;11.77;3.90;;;8.30;92.10;;;;;;5047729;28;20310;-74
2022/11/18 06:11:28;;;;;;;15.80;4.78;;;8.30;92.20;;;;;;5046454;28;20481;-76
2022/11/18 06:14:08;;;;;;;10.30;3.92;;;8.30;92.00;;;;;;5048141;28;20670;-75
2022/11/18 06:16:36;;;;;;;15.13;4.47;;;8.30;92.10;;;;;;5052214;28;20032;-77
2022/11/18 06:19:02;;;;;;;12.15;4.00;;;8.40;92.10;;;;;;5041454;28;20104;-74
2022/11/18 06:21:28;;;;;;;12.13;4.00;;;8.30;92.10;;;;;;5049819;28;20075;-74
2022/11/18 06:23:54;;;;;;;11.13;4.50;;;8.40;92.10;;;;;;5046919;28;20032;-76
2022/11/18 06:26:20;;;;;;;13.90;4.25;;;8.40;92.00;;;;;;5059872;28;20530;-77
2022/11/18 06:28:47;;;;;;;12.80;4.13;;;8.40;92.00;;;;;;5040747;28;20060;-75
2022/11/18 06:31:15;;;;;;;11.80;4.38;;;8.40;92.10;;;;;;5046365;28;20526;-74
2022/11/18 06:33:41;;;;;;;11.55;4.07;;;8.40;92.00;;;;;;5049597;28;20051;-76
2022/11/18 06:36:07;;;;;;;12.73;4.72;;;8.40;92.00;;;;;;5046422;28;20037;-75
2022/11/18 06:38:33;;;;;;;10.60;4.53;;;8.40;92.00;;;;;;5050222;28;20024;-74
2022/11/18 06:41:00;;;;;;;12.88;4.47;;;8.50;92.00;;;;;;5055281;28;20460;-74
2022/11/18 06:43:38;;;;;;;10.73;4.20;;;8.50;92.00;;;;;;5052547;28;20028;-74
2022/11/18 06:48:50;;;;;;;14.05;4.80;;;8.50;91.90;;;;;;5048246;28;20040;-75
2022/11/18 06:51:16;;;;;;;15.10;5.00;;;8.40;91.90;;;;;;5049262;28;20024;-75
2022/11/18 06:53:42;;;;;;;12.18;4.60;;;8.50;91.80;;;;;;5055374;28;20059;-75
2022/11/18 06:56:13;;;;;;;11.85;4.25;;;8.40;91.80;;;;;;5048486;28;20094;-74
2022/11/18 06:58:39;;;;;;;13.13;4.18;;;8.40;91.90;;;;;;5050776;28;20045;-74
2022/11/18 07:01:33;;;;;;;12.55;4.85;;;8.50;91.90;;;;;;5054416;28;20070;-76
2022/11/18 07:04:00;;;;;;;10.75;4.47;;;8.50;91.90;;;;;;5050097;28;20036;-75
2022/11/18 07:06:31;;;;;;;11.90;4.63;;;8.50;91.80;;;;;;5047209;28;20067;-75
2022/11/18 07:08:59;;;;;;;10.52;4.25;;;8.50;91.80;;;;;;5051549;28;20119;-75
2022/11/18 07:11:25;;;;;;;14.60;4.40;;;8.50;91.80;;;;;;5045322;28;20059;-73
2022/11/18 07:13:51;;;;;;;11.23;4.07;;;8.50;91.80;;;;;;5045945;28;20025;-76
2022/11/18 07:16:25;;;;;;;10.70;4.30;;;8.50;91.80;;;;;;5049694;28;20660;-73
2022/11/18 07:18:52;;;;;;;10.77;3.55;;;8.50;91.70;;;;;;5043479;28;20872;-74
2022/11/18 07:21:28;;;;;;;13.38;3.80;;;8.60;91.90;;;;;;5051497;28;20310;-74
2022/11/18 07:23:55;;;;;;;12.25;3.40;;;8.60;91.70;;;;;;5045463;28;20033;-73
2022/11/18 07:26:21;;;;;;;8.27;2.90;;;8.60;91.60;;;;;;5050536;28;20096;-73
2022/11/18 07:28:48;;;;;;;11.90;4.07;;;8.60;91.60;;;;;;5043659;28;20037;-74
2022/11/18 07:31:15;;;;;;;14.85;4.00;;;8.60;91.50;;;;;;5048635;28;20047;-73
2022/11/18 07:33:42;;;;;;;17.35;4.25;;;8.60;91.30;;;;;;5048026;28;20530;-74
2022/11/18 07:36:13;;;;;;;13.85;3.72;;;8.60;91.40;;;;;;5053303;28;20048;-75
2022/11/18 07:38:40;;;;;;;10.90;3.63;;;8.60;91.40;;;;;;5045699;28;20045;-75
2022/11/18 07:41:17;;;;;;;12.23;3.80;;;8.60;91.40;;;;;;5058320;28;20037;-76
2022/11/18 07:43:43;;;;;;;11.55;3.75;;;8.60;91.30;;;;;;5042590;28;20040;-73
2022/11/18 07:46:17;;;;;;;12.43;3.90;;;8.70;91.40;;;;;;5045822;28;20295;-75
2022/11/18 07:48:45;;;;;;;11.63;3.47;;;8.70;91.40;;;;;;5046275;28;20037;-74
2022/11/18 07:51:11;;;;;;;12.88;3.90;;;8.70;91.30;;;;;;5052300;28;20032;-74
2022/11/18 07:53:37;;;;;;;11.88;3.72;;;8.70;91.30;;;;;;5048673;28;20423;-74
2022/11/18 07:56:04;;;;;;;13.95;4.28;;;8.70;91.20;;;;;;5048566;28;20459;-73
2022/11/18 07:58:29;;;;;;;12.45;4.32;;;8.70;91.20;;;;;;5049723;28;20072;-74
2022/11/18 08:00:55;;;;;;;11.75;4.03;;;8.70;91.20;;;;;;5051394;28;20103;-74
2022/11/18 08:03:27;;;;;;;10.15;3.80;;;8.70;91.10;;;;;;5050592;28;20060;-74
2022/11/18 08:05:58;;;;;;;13.32;4.95;;;8.80;91.10;;;;;;5053720;28;20114;-74
2022/11/18 08:08:24;;;;;;;12.52;4.30;;;8.80;91.10;;;;;;5051890;28;20465;-75
2022/11/18 08:10:49;;;;;;;12.10;4.50;;;8.70;91.10;;;;;;5049748;28;20036;-74
2022/11/18 08:13:15;;;;;;;15.27;4.07;;;8.70;91.10;;;;;;5047024;28;20040;-76
2022/11/18 08:15:42;;;;;;;13.40;4.05;;;8.80;91.10;;;;;;5048779;28;20551;-77
2022/11/18 08:18:08;;;;;;;14.70;4.60;;;8.80;91.20;;;;;;5048953;28;20403;-76
2022/11/18 08:20:34;;;;;;;12.73;4.13;;;8.80;91.00;;;;;;5060956;28;20041;-77
2022/11/18 08:23:00;;;;;;;11.88;4.22;;;8.80;91.10;;;;;;5054755;28;20037;-77
2022/11/18 08:25:25;;;;;;;10.68;4.88;;;8.80;91.10;;;;;;5051997;28;20033;-78
2022/11/18 08:27:51;;;;;;;12.65;4.70;;;8.80;91.10;;;;;;5049505;28;20522;-75
2022/11/18 08:30:17;;;;;;;11.45;4.90;;;8.90;91.10;;;;;;5047494;28;20052;-77
2022/11/18 08:32:43;;;;;;;13.20;4.43;;;8.80;91.10;;;;;;5045585;28;20045;-76
2022/11/18 08:35:09;;;;;;;16.23;4.40;;;8.90;91.10;;;;;;5048945;28;20037;-77
2022/11/18 08:37:35;;;;;;;11.43;4.40;;;8.90;91.00;;;;;;5048636;28;20068;-77
2022/11/18 08:40:00;;;;;;;11.10;4.50;;;8.90;91.10;;;;;;5051898;28;20036;-77
2022/11/18 08:42:26;;;;;;;13.05;4.90;;;8.90;90.90;;;;;;5052028;28;20037;-79
2022/11/18 08:44:52;;;;;;;12.18;4.80;;;9.00;90.90;;;;;;5047723;28;20056;-78
2022/11/18 08:47:17;;;;;;;15.48;5.40;;;9.00;90.80;;;;;;5049853;28;20021;-76
2022/11/18 08:49:43;;;;;;;15.05;5.10;;;9.10;90.80;;;;;;5048669;28;20378;-76
2022/11/18 08:52:09;;;;;;;11.65;4.68;;;9.10;90.80;;;;;;5049352;28;20485;-77
2022/11/18 08:54:35;;;;;;;10.80;5.13;;;9.10;90.50;;;;;;5054804;28;20393;-76
2022/11/18 08:57:00;;;;;;;10.15;4.43;;;9.20;90.50;;;;;;5051779;28;20477;-76
2022/11/18 08:59:26;;;;;;;13.50;5.22;;;9.30;90.40;;;;;;5046949;28;20033;-78
2022/11/18 09:01:52;;;;;;;12.68;4.95;;;9.40;90.30;;;;;;5051206;28;20033;-76
2022/11/18 09:04:17;;;;;;;11.82;4.78;;;9.40;90.30;;;;;;5056244;28;20519;-76
2022/11/18 09:06:43;;;;;;;11.07;5.07;;;9.40;90.30;;;;;;5067054;28;20469;-76
2022/11/18 09:09:09;;;;;;;15.82;5.03;;;9.50;90.10;;;;;;5068012;28;20041;-74
2022/11/18 09:11:37;;;;;;;15.07;5.20;;;9.60;90.10;;;;;;5060413;28;20094;-74
2022/11/18 09:14:03;;;;;;;13.40;5.03;;;9.60;89.90;;;;;;5046288;28;20033;-75
2022/11/18 09:16:30;;;;;;;10.77;4.68;;;9.70;89.90;;;;;;5052360;28;20435;-74
2022/11/18 09:18:57;;;;;;;17.15;5.18;;;9.70;89.70;;;;;;5047956;28;20041;-75
2022/11/18 09:21:23;;;;;;;17.98;5.50;;;9.80;89.50;;;;;;5047817;28;20465;-76
2022/11/18 09:23:49;;;;;;;11.77;4.47;;;9.90;89.30;;;;;;5067367;28;20029;-76
2022/11/18 09:26:18;;;;;;;14.88;5.40;;;9.90;89.20;;;;;;5055579;28;20067;-76
2022/11/18 09:28:43;;;;;;;10.75;4.55;;;10.00;89.00;;;;;;5052183;28;20040;-77
2022/11/18 09:31:10;;;;;;;13.80;4.68;;;10.00;88.90;;;;;;5041068;28;20053;-76
2022/11/18 09:33:37;;;;;;;10.32;4.32;;;10.10;88.90;;;;;;5047384;28;20047;-77
2022/11/18 09:36:04;;;;;;;10.82;4.68;;;10.00;88.80;;;;;;5056388;28;20036;-77
2022/11/18 09:38:31;;;;;;;11.45;4.60;;;10.10;88.80;;;;;;5049654;28;20045;-76
2022/11/18 09:41:08;;;;;;;10.88;4.53;;;10.10;88.70;;;;;;5050047;28;20054;-76
2022/11/18 09:43:59;;;;;;;10.85;4.60;;;10.10;88.60;;;;;;5054562;28;20493;-76
2022/11/18 09:46:56;;;;;;;13.90;4.78;;;10.10;88.50;;;;;;5044064;28;20041;-76
2022/11/18 09:49:31;;;;;;;14.82;4.25;;;10.10;88.70;;;;;;5050908;28;20429;-75
2022/11/18 09:52:01;;;;;;;14.52;5.20;;;10.10;88.80;;;;;;5048694;28;20069;-76
2022/11/18 09:54:32;;;;;;;9.90;4.07;;;10.10;88.80;;;;;;5067757;28;20056;-76
2022/11/18 09:56:58;;;;;;;12.30;4.80;;;10.10;88.70;;;;;;5046663;28;20095;-75
2022/11/18 09:59:27;;;;;;;10.30;4.20;;;10.10;88.80;;;;;;5046646;28;20043;-75
2022/11/18 10:02:01;;;;;;;11.73;4.45;;;10.10;88.90;;;;;;5046654;28;20047;-76
2022/11/18 10:04:28;;;;;;;9.60;4.10;;;10.10;88.90;;;;;;5052102;28;20033;-76
2022/11/18 10:06:53;;;;;;;11.20;4.32;;;10.10;88.90;;;;;;5050455;28;20044;-76
2022/11/18 10:09:34;;;;;;;10.43;4.65;;;10.10;89.00;;;;;;5048600;28;20043;-74
2022/11/18 10:12:44;;;;;;;11.07;4.80;;;10.10;88.90;;;;;;5047505;28;20481;-76
2022/11/18 10:15:38;;;;;;;12.18;4.72;;;10.10;88.80;;;;;;5063891;28;20037;-75
2022/11/18 10:18:29;;;;;;;13.70;4.53;;;10.20;88.80;;;;;;5037484;28;20037;-76
2022/11/18 10:21:21;;;;;;;12.80;4.85;;;10.20;88.70;;;;;;5051720;28;20033;-76
2022/11/18 10:23:59;;;;;;;11.48;4.78;;;10.20;88.70;;;;;;5042678;28;20041;-75
2022/11/18 10:26:57;;;;;;;14.15;5.75;;;10.30;88.50;;;;;;5045756;28;20042;-75
2022/11/18 10:29:24;;;;;;;8.40;3.65;;;10.30;88.40;;;;;;5045313;28;20125;-74
2022/11/18 10:32:04;;;;;;;12.07;3.97;;;10.30;88.20;;;;;;5043423;28;20052;-76
2022/11/18 10:34:30;;;;;;;12.52;3.83;;;10.40;88.10;;;;;;5050650;28;20033;-75
2022/11/18 10:37:12;;;;;;;12.63;3.33;;;10.40;87.90;;;;;;5050038;28;20037;-77
2022/11/18 10:39:55;;;;;;;9.60;3.50;;;10.40;87.90;;;;;;5048050;28;20037;-76
2022/11/18 10:42:35;;;;;;;11.95;4.32;;;10.40;87.60;;;;;;5045654;28;20036;-80
2022/11/18 10:45:31;;;;;;;7.53;3.10;;;10.50;87.40;;;;;;5071577;28;20123;-81
2022/11/18 10:48:19;;;;;;;9.60;3.47;;;10.50;87.40;;;;;;5033804;28;20025;-79
2022/11/18 10:50:50;;;;;;;10.10;4.05;;;10.50;87.30;;;;;;5055733;28;20012;-75
2022/11/18 10:53:32;;;;;;;15.05;6.40;;;10.50;87.20;;;;;;5077436;28;20049;-78
2022/11/18 10:56:02;;;;;;;15.43;9.27;;;10.60;87.30;;;;;;5079364;28;20021;-74
2022/11/18 10:58:34;;;;;;;13.52;5.88;;;10.60;87.20;;;;;;5075438;28;20051;-74
2022/11/18 11:01:14;;;;;;;36.70;23.90;;;10.60;86.80;;;;;;5066503;28;20033;-79
2022/11/18 11:03:42;;;;;;;18.65;12.77;;;10.60;86.80;;;;;;5052121;28;20048;-81
2022/11/18 11:06:25;;;;;;;25.35;11.90;;;10.70;86.50;;;;;;5058131;28;20029;-80
2022/11/18 11:08:58;;;;;;;19.80;10.98;;;10.70;86.30;;;;;;5056910;28;20207;-79
2022/11/18 11:11:25;;;;;;;14.23;7.65;;;10.70;86.10;;;;;;5048229;28;20037;-78
2022/11/18 11:13:56;;;;;;;21.55;7.43;;;10.70;86.20;;;;;;5064846;28;20095;-77
2022/11/18 11:16:24;;;;;;;14.93;7.95;;;10.80;85.90;;;;;;5049390;28;20040;-80
2022/11/18 11:18:56;;;;;;;15.65;6.93;;;10.80;85.90;;;;;;5044969;28;20037;-79
2022/11/18 11:21:26;;;;;;;8.80;3.17;;;10.90;85.70;;;;;;5045722;28;20036;-79
2022/11/18 11:23:52;;;;;;;11.38;4.15;;;10.90;85.60;;;;;;5044529;28;20025;-78
2022/11/18 11:26:34;;;;;;;10.43;3.80;;;10.90;85.50;;;;;;5062557;28;20037;-79
2022/11/18 11:29:13;;;;;;;9.25;3.88;;;11.00;85.30;;;;;;5047828;28;20041;-78
2022/11/18 11:31:48;;;;;;;10.48;3.03;;;11.00;85.20;;;;;;5045202;28;20110;-79
2022/11/18 11:34:41;;;;;;;13.95;3.28;;;11.00;85.10;;;;;;5061047;28;20059;-80
2022/11/18 11:37:42;;;;;;;9.18;3.30;;;11.10;84.90;;;;;;5049589;28;20045;-75
2022/11/18 11:40:33;;;;;;;8.95;3.25;;;11.10;85.00;;;;;;5039986;28;20045;-75
2022/11/18 11:43:14;;;;;;;8.48;3.08;;;11.20;84.80;;;;;;5044355;28;20736;-75
2022/11/18 11:45:45;;;;;;;9.68;2.88;;;11.30;84.50;;;;;;5044779;28;20041;-77
2022/11/18 11:48:40;;;;;;;10.50;2.90;;;11.30;84.20;;;;;;5044845;28;20029;-75
2022/11/18 11:51:15;;;;;;;;;;;11.30;84.10;;;;;;5049498;28;20028;-77
2022/11/18 11:54:05;;;;;;;11.13;4.82;;;11.30;84.10;;;;;;5047278;28;20397;-76
2022/11/18 11:56:48;;;;;;;11.48;3.92;;;11.30;83.80;;;;;;5046637;28;20041;-76
2022/11/18 11:59:50;;;;;;;10.93;3.88;;;11.40;84.00;;;;;;5059861;28;20148;-76
2022/11/18 12:02:34;;;;;;;10.60;3.45;;;11.30;83.80;;;;;;5045210;28;20041;-77
2022/11/18 12:05:38;;;;;;;10.40;2.92;;;11.40;83.80;;;;;;5047717;28;20076;-75
2022/11/18 12:08:11;;;;;;;8.43;3.03;;;11.50;83.80;;;;;;5034117;28;20036;-76
2022/11/18 12:10:59;;;;;;;9.80;3.60;;;11.40;83.60;;;;;;5046638;28;20029;-75
2022/11/18 12:13:54;;;;;;;10.25;3.75;;;11.50;83.50;;;;;;5047493;28;20037;-78
2022/11/18 12:16:43;;;;;;;8.90;3.30;;;11.60;83.40;;;;;;5061843;28;20025;-75
2022/11/18 12:19:21;;;;;;;20.30;4.28;;;11.50;83.40;;;;;;5048168;28;20036;-75
2022/11/18 12:21:57;;;;;;;11.82;3.08;;;11.60;83.40;;;;;;5052357;28;20045;-78
2022/11/18 12:24:30;;;;;;;9.88;3.30;;;11.60;83.20;;;;;;5050408;28;20121;-79
2022/11/18 12:27:12;;;;;;;10.32;3.70;;;11.60;82.80;;;;;;5053321;28;20032;-78
2022/11/18 12:29:49;;;;;;;14.80;3.75;;;11.70;83.00;;;;;;5045585;28;20123;-76
2022/11/18 12:32:34;;;;;;;12.70;4.38;;;11.80;83.10;;;;;;5051379;28;20096;-76
2022/11/18 12:34:59;;;;;;;8.77;3.77;;;11.80;82.90;;;;;;5053713;28;20029;-77
2022/11/18 12:37:25;;;;;;;11.52;3.80;;;11.90;82.70;;;;;;5055836;28;20267;-76
2022/11/18 12:39:59;;;;;;;10.50;3.50;;;12.00;82.30;;;;;;5076948;28;20037;-78
2022/11/18 12:45:41;;;;;;;10.38;3.60;;;12.10;82.20;;;;;;5050320;28;20083;-79
2022/11/18 12:48:36;;;;;;;14.25;3.88;;;12.10;82.30;;;;;;5048262;28;20048;-77
2022/11/18 12:51:13;;;;;;;13.90;3.63;;;12.10;82.00;;;;;;5047283;28;20128;-77
2022/11/18 12:53:48;;;;;;;10.68;4.20;;;12.20;81.60;;;;;;5048728;28;20071;-75
2022/11/18 12:56:16;;;;;;;10.13;3.38;;;12.30;80.40;;;;;;5053244;28;20139;-77
2022/11/18 12:58:47;;;;;;;9.23;3.88;;;12.30;80.30;;;;;;5050293;28;20131;-76
2022/11/18 13:01:17;;;;;;;11.18;3.38;;;12.40;80.40;;;;;;5043817;28;20500;-76
2022/11/18 13:03:43;;;;;;;10.88;3.38;;;12.50;80.10;;;;;;5055616;28;20052;-73
2022/11/18 13:06:25;;;;;;;11.10;3.70;;;12.40;80.00;;;;;;5050629;28;20045;-76
2022/11/18 13:08:57;;;;;;;10.85;3.35;;;12.50;79.90;;;;;;5048203;28;20459;-75
2022/11/18 13:11:43;;;;;;;11.68;2.70;;;12.40;80.00;;;;;;5055068;28;20466;-75
2022/11/18 13:17:53;;;;;;;11.38;2.80;;;12.40;79.50;;;;;;5045439;28;20127;-76
2022/11/18 13:20:36;;;;;;;8.23;2.58;;;12.50;78.70;;;;;;5051716;28;20056;-76
2022/11/18 13:26:11;;;;;;;10.13;2.88;;;12.50;79.00;;;;;;5047778;28;20047;-75
2022/11/18 13:28:56;;;;;;;12.23;3.17;;;12.50;78.80;;;;;;5055461;28;20029;-76
2022/11/18 13:31:45;;;;;;;8.40;3.30;;;12.60;78.90;;;;;;5050017;28;20072;-76
2022/11/18 13:34:20;;;;;;;12.70;2.88;;;12.60;79.30;;;;;;5065267;28;20051;-75
2022/11/18 13:36:47;;;;;;;;;;;12.60;79.40;;;;;;5053904;28;20037;-77
2022/11/18 13:39:25;;;;;;;9.57;4.07;;;12.60;79.20;;;;;;5049893;28;19987;-77
2022/11/18 13:42:17;;;;;;;9.50;3.15;;;12.60;79.40;;;;;;5051799;28;20036;-74